Granby Valley, Vermont
Current Conditions -  °F | °C
As of 10:52 AM on Thursday 29 Jan 2015 (Local Time) from KHIE Reporting Station
Clear Clear  
Wind Chill:   Ceiling: Unl
Heat Index:   Visibility: 10mi
Dew Point: -1°   Wind: 0mph
Humidity: 73%   Direction: NA
Pressure: 30.22"   Gusts: NA
Location:  44.5627°N, 71.7775°W
Report Text: KHIE 291552Z AUTO 00000KT 10SM CLR M14/M18 A3022 RMK AO2 SLP266 T11441183
Loading
Personal Weather Stations






























Interactive Weather Map New forecast layout! Learn more

10-Day Weather Forecast

Advertisements
Track Severe Weather on mobile